Time;durP1;ratioP1;P1;durP2;ratioP2;P2;SDS_P1;SDS_P2;PMS_P1;PMS_P2;Temp;Humidity;BMP_temperature;BMP_pressure;BME280_temperature;BME280_humidity;BME280_pressure;Samples;Min_cycle;Max_cycle;Signal;HPM_P1;HPM_P2
2021/10/13 00:02:00;;;;;;;25.33;15.95;;;;;;;;;;5038875;28;20029;-80
2021/10/13 00:04:27;;;;;;;26.35;16.75;;;;;;;;;;5038709;28;20026;-80
2021/10/13 00:06:53;;;;;;;23.95;14.02;;;;;;;;;;5039055;28;20428;-80
2021/10/13 00:09:19;;;;;;;22.45;12.57;;;;;;;;;;5038615;28;20434;-80
2021/10/13 00:11:45;;;;;;;17.98;12.13;;;;;;;;;;5038736;28;20128;-80
2021/10/13 00:14:11;;;;;;;19.90;13.30;;;;;;;;;;5038907;28;20022;-81
2021/10/13 00:16:37;;;;;;;18.15;12.40;;;;;;;;;;5038615;28;20018;-80
2021/10/13 00:19:04;;;;;;;16.60;11.35;;;;;;;;;;5038415;28;20051;-80
2021/10/13 00:21:30;;;;;;;15.95;10.75;;;;;;;;;;5020935;28;20022;-80
2021/10/13 00:23:56;;;;;;;16.48;10.73;;;;;;;;;;5038561;28;20124;-80
2021/10/13 00:26:22;;;;;;;13.65;10.25;;;;;;;;;;5038520;28;20029;-80
2021/10/13 00:28:48;;;;;;;15.75;11.55;;;;;;;;;;5038184;28;20037;-81
2021/10/13 00:31:14;;;;;;;14.90;10.25;;;;;;;;;;5038305;28;20021;-80
2021/10/13 00:33:40;;;;;;;14.88;10.48;;;;;;;;;;5038094;28;20017;-80
2021/10/13 00:36:06;;;;;;;17.67;10.55;;;;;;;;;;5038189;28;20068;-81
2021/10/13 00:38:32;;;;;;;15.63;10.50;;;;;;;;;;5038302;28;20017;-80
2021/10/13 00:40:58;;;;;;;13.40;9.95;;;;;;;;;;5038218;28;20052;-80
2021/10/13 00:43:24;;;;;;;17.38;10.98;;;;;;;;;;5038020;28;20022;-80
2021/10/13 00:45:52;;;;;;;14.80;10.00;;;;;;;;;;5037996;28;20028;-80
2021/10/13 00:48:18;;;;;;;17.17;10.77;;;;;;;;;;5038075;28;20148;-80
2021/10/13 00:50:44;;;;;;;16.42;11.85;;;;;;;;;;5019957;28;20060;-80
2021/10/13 00:53:10;;;;;;;17.02;11.65;;;;;;;;;;5037842;28;20048;-81
2021/10/13 00:55:36;;;;;;;15.43;10.40;;;;;;;;;;5037118;28;20079;-81
2021/10/13 00:58:02;;;;;;;17.52;9.95;;;;;;;;;;5037386;28;20095;-80
2021/10/13 01:00:28;;;;;;;15.52;10.20;;;;;;;;;;5037572;28;20045;-80
2021/10/13 01:03:04;;;;;;;12.68;9.63;;;;;;;;;;5019890;28;20046;-81
2021/10/13 01:05:30;;;;;;;16.77;9.48;;;;;;;;;;5037660;28;20025;-80
2021/10/13 01:07:56;;;;;;;13.00;10.05;;;;;;;;;;5037622;28;20029;-80
2021/10/13 01:10:45;;;;;;;12.77;8.75;;;;;;;;;;5037691;28;20040;-80
2021/10/13 01:13:11;;;;;;;11.30;9.48;;;;;;;;;;5037324;28;20028;-80
2021/10/13 01:15:46;;;;;;;14.80;9.35;;;;;;;;;;5037439;28;20025;-80
2021/10/13 01:18:27;;;;;;;16.35;9.35;;;;;;;;;;5036579;28;20444;-80
2021/10/13 01:21:00;;;;;;;15.60;10.30;;;;;;;;;;5037493;28;20029;-80
2021/10/13 01:23:26;;;;;;;16.90;10.27;;;;;;;;;;5019991;28;20029;-80
2021/10/13 01:26:10;;;;;;;15.90;11.10;;;;;;;;;;5019873;28;20025;-79
2021/10/13 01:28:39;;;;;;;13.48;9.32;;;;;;;;;;5037079;28;20442;-80
2021/10/13 01:31:05;;;;;;;15.25;9.73;;;;;;;;;;5037076;28;20034;-80
2021/10/13 01:33:38;;;;;;;13.20;9.60;;;;;;;;;;5037069;28;20376;-80
2021/10/13 01:36:06;;;;;;;16.88;9.32;;;;;;;;;;5037071;28;20285;-80
2021/10/13 01:38:37;;;;;;;12.07;9.52;;;;;;;;;;5037198;28;20025;-80
2021/10/13 01:41:05;;;;;;;12.88;9.38;;;;;;;;;;5036920;28;20085;-79
2021/10/13 01:43:33;;;;;;;12.77;9.32;;;;;;;;;;5037207;28;20045;-80
2021/10/13 01:46:01;;;;;;;14.13;9.82;;;;;;;;;;5036962;28;20029;-79
2021/10/13 01:48:28;;;;;;;14.02;9.65;;;;;;;;;;5036954;28;20121;-80
2021/10/13 01:50:55;;;;;;;14.45;9.45;;;;;;;;;;5019435;28;20025;-80
2021/10/13 01:53:23;;;;;;;13.88;9.05;;;;;;;;;;5036958;28;20018;-79
2021/10/13 01:55:51;;;;;;;11.68;8.30;;;;;;;;;;5036839;28;20025;-80
2021/10/13 01:58:18;;;;;;;12.70;9.07;;;;;;;;;;5036305;28;20067;-79
2021/10/13 02:00:46;;;;;;;13.68;9.30;;;;;;;;;;5036904;28;20121;-80
2021/10/13 02:03:13;;;;;;;15.93;9.77;;;;;;;;;;5036875;28;20057;-80
2021/10/13 02:05:39;;;;;;;13.52;9.38;;;;;;;;;;5038180;28;20032;-80
2021/10/13 02:08:06;;;;;;;13.35;9.30;;;;;;;;;;5040971;28;20434;-80
2021/10/13 02:10:32;;;;;;;14.07;9.55;;;;;;;;;;5040821;28;20033;-80
2021/10/13 02:13:17;;;;;;;13.70;9.82;;;;;;;;;;5023282;28;20028;-80
2021/10/13 02:15:45;;;;;;;15.18;9.85;;;;;;;;;;5040812;28;20067;-79
2021/10/13 02:18:13;;;;;;;13.20;8.70;;;;;;;;;;5040796;28;20048;-80
2021/10/13 02:20:40;;;;;;;15.82;9.50;;;;;;;;;;5023278;28;20030;-80
2021/10/13 02:23:06;;;;;;;16.42;10.00;;;;;;;;;;5040970;28;20067;-79
2021/10/13 02:25:34;;;;;;;15.32;9.23;;;;;;;;;;5040910;28;20029;-80
2021/10/13 02:28:03;;;;;;;13.00;8.52;;;;;;;;;;5040490;28;20401;-80
2021/10/13 02:30:29;;;;;;;17.02;9.38;;;;;;;;;;5040506;28;20028;-80
2021/10/13 02:32:55;;;;;;;12.23;9.10;;;;;;;;;;5040598;28;20525;-80
2021/10/13 02:35:21;;;;;;;12.85;8.07;;;;;;;;;;5040563;28;20024;-80
2021/10/13 02:37:47;;;;;;;13.18;8.68;;;;;;;;;;5040403;28;20090;-79
2021/10/13 02:40:13;;;;;;;12.13;8.98;;;;;;;;;;5040341;28;20092;-80
2021/10/13 02:42:40;;;;;;;13.77;8.50;;;;;;;;;;5040437;28;20029;-80
2021/10/13 02:45:06;;;;;;;13.35;8.65;;;;;;;;;;5040314;28;20184;-81
2021/10/13 02:47:44;;;;;;;11.98;8.55;;;;;;;;;;5040087;28;20398;-78
2021/10/13 02:50:29;;;;;;;15.43;8.77;;;;;;;;;;5040062;28;20056;-78
2021/10/13 02:53:01;;;;;;;13.88;9.35;;;;;;;;;;5022276;28;20033;-79
2021/10/13 02:55:38;;;;;;;11.30;8.90;;;;;;;;;;5040125;28;20033;-79
2021/10/13 02:58:14;;;;;;;12.68;9.05;;;;;;;;;;5039713;28;20104;-80
2021/10/13 03:00:40;;;;;;;13.77;9.57;;;;;;;;;;5039773;28;20041;-80
2021/10/13 03:03:09;;;;;;;14.13;10.07;;;;;;;;;;5039950;28;20437;-80
2021/10/13 03:05:38;;;;;;;13.68;10.40;;;;;;;;;;5022322;28;20037;-80
2021/10/13 03:08:07;;;;;;;15.52;10.00;;;;;;;;;;5039842;28;20037;-80
2021/10/13 03:10:34;;;;;;;14.32;9.65;;;;;;;;;;5039838;28;20292;-79
2021/10/13 03:13:01;;;;;;;20.38;9.50;;;;;;;;;;5039690;28;20076;-79
2021/10/13 03:15:28;;;;;;;14.73;10.38;;;;;;;;;;5039637;28;20075;-79
2021/10/13 03:17:55;;;;;;;14.25;9.35;;;;;;;;;;5038884;28;20025;-79
2021/10/13 03:20:22;;;;;;;17.05;11.20;;;;;;;;;;5039555;28;20041;-79
2021/10/13 03:22:49;;;;;;;15.10;10.20;;;;;;;;;;5039622;28;20029;-79
2021/10/13 03:25:29;;;;;;;17.48;10.07;;;;;;;;;;5021992;28;20036;-80
2021/10/13 03:27:56;;;;;;;17.35;10.35;;;;;;;;;;5039331;28;20045;-79
2021/10/13 03:30:23;;;;;;;17.25;11.90;;;;;;;;;;5039255;28;20117;-79
2021/10/13 03:32:49;;;;;;;23.60;13.68;;;;;;;;;;5039535;28;20047;-79
2021/10/13 03:35:23;;;;;;;16.95;12.77;;;;;;;;;;5039420;28;20339;-80
2021/10/13 03:37:49;;;;;;;16.13;10.48;;;;;;;;;;5039244;28;20108;-79
2021/10/13 03:40:16;;;;;;;18.00;10.93;;;;;;;;;;5021726;28;20022;-80
2021/10/13 03:42:42;;;;;;;18.92;11.02;;;;;;;;;;5039194;28;20486;-80
2021/10/13 03:45:11;;;;;;;16.90;10.02;;;;;;;;;;5039237;28;20029;-80
2021/10/13 03:47:37;;;;;;;15.70;9.93;;;;;;;;;;5039060;28;20121;-80
2021/10/13 03:50:03;;;;;;;15.63;11.25;;;;;;;;;;5021303;28;20018;-80
2021/10/13 03:52:29;;;;;;;16.65;10.75;;;;;;;;;;5039052;28;20025;-79
2021/10/13 03:54:56;;;;;;;13.52;10.55;;;;;;;;;;5039032;28;20047;-79
2021/10/13 03:57:22;;;;;;;18.55;12.32;;;;;;;;;;5021452;28;20056;-79
2021/10/13 03:59:48;;;;;;;16.08;11.70;;;;;;;;;;5038688;28;20335;-79
2021/10/13 04:02:14;;;;;;;17.60;12.40;;;;;;;;;;5038971;28;20029;-80
2021/10/13 04:04:40;;;;;;;16.55;11.13;;;;;;;;;;5038722;28;20347;-80
2021/10/13 04:07:06;;;;;;;15.25;10.95;;;;;;;;;;5038668;28;20029;-80
2021/10/13 04:09:32;;;;;;;15.05;10.63;;;;;;;;;;5038485;28;20030;-80
2021/10/13 04:11:58;;;;;;;14.23;10.00;;;;;;;;;;5020890;28;20559;-80
2021/10/13 04:14:24;;;;;;;15.82;10.55;;;;;;;;;;5038493;28;20053;-80
2021/10/13 04:16:50;;;;;;;15.55;10.32;;;;;;;;;;5038535;28;20423;-80
2021/10/13 04:19:17;;;;;;;15.95;10.38;;;;;;;;;;5020720;28;20041;-78
2021/10/13 04:21:43;;;;;;;14.93;11.32;;;;;;;;;;5038572;28;20021;-78
2021/10/13 04:24:09;;;;;;;17.63;11.75;;;;;;;;;;5038354;28;20021;-80
2021/10/13 04:26:35;;;;;;;15.75;11.35;;;;;;;;;;5038448;28;20044;-80
2021/10/13 04:29:01;;;;;;;18.25;12.05;;;;;;;;;;5036758;28;20061;-79
2021/10/13 04:31:27;;;;;;;18.33;11.52;;;;;;;;;;5038170;28;20307;-80
2021/10/13 04:33:54;;;;;;;19.08;11.80;;;;;;;;;;5038385;28;20339;-80
2021/10/13 04:36:20;;;;;;;18.35;11.68;;;;;;;;;;5020752;28;20029;-79
2021/10/13 04:38:46;;;;;;;30.48;16.63;;;;;;;;;;5038462;28;20075;-80
2021/10/13 04:41:12;;;;;;;31.40;16.95;;;;;;;;;;5038225;28;20026;-80
2021/10/13 04:43:38;;;;;;;41.85;20.40;;;;;;;;;;5020405;28;20176;-79
2021/10/13 04:46:04;;;;;;;38.10;20.08;;;;;;;;;;5038131;28;20036;-80
2021/10/13 04:48:30;;;;;;;35.00;18.42;;;;;;;;;;5038062;28;20031;-80
2021/10/13 04:50:56;;;;;;;27.48;16.55;;;;;;;;;;5037723;28;20033;-79
2021/10/13 04:53:22;;;;;;;25.45;14.38;;;;;;;;;;5037941;28;20079;-80
2021/10/13 04:55:48;;;;;;;22.00;13.52;;;;;;;;;;5038008;28;20021;-78
2021/10/13 04:58:14;;;;;;;20.27;13.27;;;;;;;;;;5037615;28;20033;-78
2021/10/13 05:00:40;;;;;;;20.58;12.43;;;;;;;;;;5037556;28;20084;-78
2021/10/13 05:03:06;;;;;;;18.85;12.27;;;;;;;;;;5037662;28;20033;-79
2021/10/13 05:05:32;;;;;;;19.38;13.55;;;;;;;;;;5037904;28;20025;-79
2021/10/13 05:07:58;;;;;;;19.58;12.63;;;;;;;;;;5020169;28;20021;-79
2021/10/13 05:10:24;;;;;;;16.63;10.85;;;;;;;;;;5037293;28;20457;-79
2021/10/13 05:12:50;;;;;;;18.60;12.63;;;;;;;;;;5037512;28;20029;-80
2021/10/13 05:15:16;;;;;;;26.20;14.90;;;;;;;;;;5018600;28;20049;-78
2021/10/13 05:17:42;;;;;;;29.77;17.10;;;;;;;;;;5000674;28;20120;-79
2021/10/13 05:20:09;;;;;;;26.10;15.50;;;;;;;;;;5017450;28;20033;-78
2021/10/13 05:22:35;;;;;;;28.10;16.90;;;;;;;;;;5019154;28;20467;-79
2021/10/13 05:25:01;;;;;;;23.35;16.30;;;;;;;;;;5028376;28;20328;-78
2021/10/13 05:27:27;;;;;;;25.63;16.38;;;;;;;;;;5037090;28;20111;-78
2021/10/13 05:29:53;;;;;;;25.35;16.67;;;;;;;;;;5033241;28;20033;-78
2021/10/13 05:32:19;;;;;;;29.13;16.48;;;;;;;;;;5037304;28;20014;-78
2021/10/13 05:34:45;;;;;;;24.85;15.95;;;;;;;;;;5034895;28;20036;-79
2021/10/13 05:37:11;;;;;;;33.97;18.33;;;;;;;;;;5037193;28;20026;-79
2021/10/13 05:39:37;;;;;;;39.03;21.17;;;;;;;;;;5019540;28;20033;-79
2021/10/13 05:42:03;;;;;;;52.20;29.75;;;;;;;;;;5036929;28;20021;-79
2021/10/13 05:44:30;;;;;;;60.67;31.75;;;;;;;;;;5017358;28;20033;-79
2021/10/13 05:46:56;;;;;;;78.57;41.55;;;;;;;;;;5037134;28;20076;-79
2021/10/13 05:49:22;;;;;;;74.65;35.75;;;;;;;;;;5029834;28;20109;-78
2021/10/13 05:51:48;;;;;;;89.95;40.28;;;;;;;;;;5027819;28;20014;-79
2021/10/13 05:54:14;;;;;;;94.65;39.13;;;;;;;;;;5035822;28;20068;-79
2021/10/13 05:56:40;;;;;;;71.75;34.58;;;;;;;;;;5024186;28;20028;-78
2021/10/13 05:59:06;;;;;;;59.97;30.48;;;;;;;;;;5018230;28;20054;-76
2021/10/13 06:01:33;;;;;;;51.03;27.73;;;;;;;;;;5017016;28;20053;-79
2021/10/13 06:03:59;;;;;;;41.20;24.48;;;;;;;;;;5019952;28;20351;-79
2021/10/13 06:06:26;;;;;;;31.00;19.63;;;;;;;;;;5014776;28;20061;-79
2021/10/13 06:08:52;;;;;;;21.92;15.90;;;;;;;;;;5020036;28;20030;-79
2021/10/13 06:11:18;;;;;;;23.02;12.85;;;;;;;;;;4999765;28;20297;-79
2021/10/13 06:13:44;;;;;;;17.58;11.98;;;;;;;;;;5017001;28;20081;-79
2021/10/13 06:16:11;;;;;;;26.80;13.32;;;;;;;;;;5016966;28;20351;-79
2021/10/13 06:18:38;;;;;;;24.35;15.18;;;;;;;;;;5016928;28;20026;-79
2021/10/13 06:21:04;;;;;;;19.23;12.98;;;;;;;;;;5017144;28;20057;-79
2021/10/13 06:23:31;;;;;;;21.50;13.45;;;;;;;;;;5016984;28;20183;-79
2021/10/13 06:25:57;;;;;;;19.10;12.00;;;;;;;;;;4999092;28;20440;-79
2021/10/13 06:28:23;;;;;;;21.45;13.73;;;;;;;;;;5016518;28;20117;-79
2021/10/13 06:30:49;;;;;;;21.20;13.10;;;;;;;;;;4999407;28;20026;-79
2021/10/13 06:33:15;;;;;;;20.42;13.80;;;;;;;;;;4999558;28;20029;-79
2021/10/13 06:35:41;;;;;;;17.50;12.02;;;;;;;;;;5017100;28;20118;-79
2021/10/13 06:38:07;;;;;;;23.80;13.38;;;;;;;;;;5016535;28;20041;-78
2021/10/13 06:40:33;;;;;;;19.50;12.13;;;;;;;;;;5016721;28;20022;-79
2021/10/13 06:43:01;;;;;;;21.90;11.70;;;;;;;;;;5016837;28;20040;-79
2021/10/13 06:45:28;;;;;;;16.15;11.40;;;;;;;;;;5016548;28;20088;-79
2021/10/13 06:47:54;;;;;;;18.08;11.40;;;;;;;;;;5016902;28;20047;-79
2021/10/13 06:50:20;;;;;;;18.30;11.80;;;;;;;;;;5016797;28;20042;-79
2021/10/13 06:52:46;;;;;;;17.38;11.38;;;;;;;;;;5018001;28;20030;-79
2021/10/13 06:55:13;;;;;;;16.95;11.52;;;;;;;;;;5020363;28;20045;-79
2021/10/13 06:57:39;;;;;;;16.02;11.05;;;;;;;;;;5019964;28;20026;-78
2021/10/13 07:00:07;;;;;;;17.92;11.27;;;;;;;;;;4987998;28;20356;-78
2021/10/13 07:02:33;;;;;;;17.10;12.68;;;;;;;;;;5000519;28;20031;-79
2021/10/13 07:04:59;;;;;;;18.92;12.50;;;;;;;;;;5000643;28;20038;-79
2021/10/13 07:07:25;;;;;;;18.17;11.77;;;;;;;;;;5000637;28;20157;-78
2021/10/13 07:09:51;;;;;;;20.63;12.07;;;;;;;;;;5000307;28;20026;-79
2021/10/13 07:12:17;;;;;;;16.42;11.52;;;;;;;;;;5000198;28;20034;-78
2021/10/13 07:14:43;;;;;;;16.33;12.10;;;;;;;;;;5000214;28;20018;-79
2021/10/13 07:17:10;;;;;;;18.08;12.25;;;;;;;;;;4999973;28;20032;-79
2021/10/13 07:19:36;;;;;;;19.27;12.65;;;;;;;;;;5000499;28;20045;-79
2021/10/13 07:22:02;;;;;;;18.98;12.20;;;;;;;;;;5000493;28;20027;-85
2021/10/13 07:24:28;;;;;;;31.65;20.20;;;;;;;;;;5000185;28;20524;-79
2021/10/13 07:26:54;;;;;;;19.00;13.25;;;;;;;;;;5000148;28;20137;-79
2021/10/13 07:29:20;;;;;;;19.45;12.70;;;;;;;;;;4999936;28;20081;-79
2021/10/13 07:31:47;;;;;;;15.60;12.27;;;;;;;;;;4999797;28;20357;-79
2021/10/13 07:34:13;;;;;;;16.75;11.88;;;;;;;;;;4999949;28;20073;-78
2021/10/13 07:36:39;;;;;;;16.80;11.90;;;;;;;;;;5000091;28;20027;-79
2021/10/13 07:39:06;;;;;;;15.93;11.52;;;;;;;;;;4999964;28;20018;-79
2021/10/13 07:41:32;;;;;;;17.10;12.05;;;;;;;;;;5000058;28;20022;-79
2021/10/13 07:43:58;;;;;;;16.55;11.50;;;;;;;;;;4999944;28;20022;-78
2021/10/13 07:46:25;;;;;;;18.60;11.93;;;;;;;;;;4999772;28;20019;-79
2021/10/13 07:48:52;;;;;;;15.90;11.68;;;;;;;;;;4999810;28;20014;-78
2021/10/13 07:51:18;;;;;;;17.20;12.63;;;;;;;;;;4982420;28;20057;-78
2021/10/13 07:53:44;;;;;;;18.40;12.77;;;;;;;;;;4999481;28;20023;-78
2021/10/13 07:56:10;;;;;;;17.85;13.15;;;;;;;;;;4999659;28;20027;-79
2021/10/13 07:58:36;;;;;;;19.58;12.63;;;;;;;;;;4981972;28;20046;-79
2021/10/13 08:01:02;;;;;;;21.17;15.13;;;;;;;;;;4999519;28;20041;-78
2021/10/13 08:03:28;;;;;;;18.98;14.23;;;;;;;;;;4999433;28;20105;-78
2021/10/13 08:05:54;;;;;;;20.90;15.10;;;;;;;;;;4999445;28;20030;-78
2021/10/13 08:08:20;;;;;;;21.42;14.93;;;;;;;;;;4999382;28;20029;-78
2021/10/13 08:10:46;;;;;;;20.00;14.23;;;;;;;;;;4999221;28;20045;-78
2021/10/13 08:13:13;;;;;;;23.67;14.98;;;;;;;;;;4981706;28;20037;-78
2021/10/13 08:15:39;;;;;;;20.23;14.70;;;;;;;;;;4999203;28;20409;-78
2021/10/13 08:18:05;;;;;;;23.63;15.27;;;;;;;;;;4981726;28;20065;-79
2021/10/13 08:20:31;;;;;;;20.45;15.27;;;;;;;;;;4999396;28;20030;-78
2021/10/13 08:22:57;;;;;;;19.50;14.50;;;;;;;;;;4999265;28;20034;-78
2021/10/13 08:25:23;;;;;;;20.75;13.50;;;;;;;;;;4999400;28;20026;-78
2021/10/13 08:27:49;;;;;;;20.60;13.65;;;;;;;;;;4999055;28;20030;-78
2021/10/13 08:30:15;;;;;;;20.73;13.93;;;;;;;;;;4981399;28;20337;-78
2021/10/13 08:32:41;;;;;;;19.60;13.80;;;;;;;;;;4998850;28;20341;-78
2021/10/13 08:35:08;;;;;;;17.75;13.65;;;;;;;;;;4998675;28;20030;-79
2021/10/13 08:37:35;;;;;;;25.42;16.25;;;;;;;;;;4999032;28;20023;-79
2021/10/13 08:40:01;;;;;;;22.60;14.63;;;;;;;;;;4998721;28;20045;-78
2021/10/13 08:42:28;;;;;;;18.00;13.48;;;;;;;;;;4998694;28;20394;-79
2021/10/13 08:44:54;;;;;;;23.70;14.60;;;;;;;;;;4998715;28;20037;-79
2021/10/13 08:47:21;;;;;;;19.33;14.32;;;;;;;;;;4981063;28;20462;-79
2021/10/13 08:49:47;;;;;;;19.63;13.80;;;;;;;;;;4981326;28;20425;-79
2021/10/13 08:52:14;;;;;;;21.13;13.00;;;;;;;;;;4981364;28;20031;-78
2021/10/13 08:54:41;;;;;;;22.00;13.15;;;;;;;;;;4998640;28;20022;-78
2021/10/13 08:57:17;;;;;;;17.25;14.18;;;;;;;;;;4998321;28;20029;-78
2021/10/13 08:59:43;;;;;;;16.65;12.13;;;;;;;;;;4987354;28;20092;-79
2021/10/13 09:02:13;;;;;;;18.80;13.13;;;;;;;;;;5018018;28;20113;-78
2021/10/13 09:04:39;;;;;;;17.67;12.48;;;;;;;;;;5018231;28;20026;-79
2021/10/13 09:07:05;;;;;;;21.70;12.15;;;;;;;;;;5017880;28;20029;-78
2021/10/13 09:09:32;;;;;;;18.13;12.45;;;;;;;;;;5018043;28;20336;-78
2021/10/13 09:11:58;;;;;;;18.27;11.93;;;;;;;;;;5017766;28;20022;-79
2021/10/13 09:14:26;;;;;;;18.40;11.55;;;;;;;;;;5017715;28;20462;-79
2021/10/13 09:16:57;;;;;;;26.10;17.13;;;;;;;;;;5017323;28;20050;-79
2021/10/13 09:19:27;;;;;;;20.50;13.70;;;;;;;;;;5017795;28;20032;-79
2021/10/13 09:21:53;;;;;;;22.60;14.48;;;;;;;;;;5017483;28;20061;-79
2021/10/13 09:24:20;;;;;;;20.33;13.07;;;;;;;;;;4999893;28;20482;-79
2021/10/13 09:26:46;;;;;;;19.98;13.15;;;;;;;;;;5017717;28;20030;-79
2021/10/13 09:29:12;;;;;;;20.30;14.90;;;;;;;;;;4999541;28;20049;-79
2021/10/13 09:31:38;;;;;;;25.52;18.10;;;;;;;;;;5017711;28;20030;-79
2021/10/13 09:34:06;;;;;;;35.90;23.40;;;;;;;;;;5000216;28;20026;-78
2021/10/13 09:36:36;;;;;;;23.10;15.07;;;;;;;;;;5017666;28;20049;-78
2021/10/13 09:39:10;;;;;;;26.35;18.13;;;;;;;;;;5017508;28;20030;-78
2021/10/13 09:41:55;;;;;;;27.63;18.95;;;;;;;;;;5017594;28;20101;-78
2021/10/13 09:44:22;;;;;;;17.38;12.32;;;;;;;;;;5017615;28;20022;-79
2021/10/13 09:46:48;;;;;;;13.98;9.93;;;;;;;;;;5017565;28;20017;-78
2021/10/13 09:49:25;;;;;;;14.77;10.98;;;;;;;;;;4999579;28;20034;-78
2021/10/13 09:51:51;;;;;;;15.13;9.35;;;;;;;;;;5017307;28;20351;-79
2021/10/13 09:54:17;;;;;;;13.35;10.10;;;;;;;;;;5017211;28;20025;-78
2021/10/13 09:56:43;;;;;;;14.77;9.32;;;;;;;;;;5017211;28;20112;-79
2021/10/13 09:59:17;;;;;;;16.67;11.45;;;;;;;;;;4992948;28;20042;-79
2021/10/13 10:01:44;;;;;;;15.57;11.80;;;;;;;;;;4997607;28;20046;-79
2021/10/13 10:04:12;;;;;;;11.82;8.82;;;;;;;;;;4980294;28;20022;-79
2021/10/13 10:06:38;;;;;;;12.13;9.60;;;;;;;;;;4997521;28;20028;-79
2021/10/13 10:09:05;;;;;;;12.52;9.55;;;;;;;;;;4997247;28;20053;-79
2021/10/13 10:11:41;;;;;;;16.55;9.88;;;;;;;;;;4997454;28;20026;-79
2021/10/13 10:14:26;;;;;;;12.73;9.50;;;;;;;;;;4980214;28;20034;-79
2021/10/13 10:16:52;;;;;;;12.07;9.90;;;;;;;;;;4997558;28;20045;-79
2021/10/13 10:19:18;;;;;;;13.52;10.00;;;;;;;;;;4997416;28;20018;-79
2021/10/13 10:21:58;;;;;;;13.23;9.32;;;;;;;;;;4997313;28;20057;-78
2021/10/13 10:24:27;;;;;;;11.25;9.00;;;;;;;;;;4997473;28;20022;-79
2021/10/13 10:26:53;;;;;;;13.45;9.35;;;;;;;;;;4999091;28;20316;-78
2021/10/13 10:29:20;;;;;;;10.85;8.18;;;;;;;;;;4983657;28;20034;-79
2021/10/13 10:31:56;;;;;;;12.80;9.00;;;;;;;;;;4983816;28;20424;-79
2021/10/13 10:34:24;;;;;;;11.70;9.07;;;;;;;;;;5001011;28;20033;-79
2021/10/13 10:36:50;;;;;;;15.40;10.90;;;;;;;;;;5001132;28;20114;-79
2021/10/13 10:39:16;;;;;;;13.25;10.02;;;;;;;;;;5001274;28;20106;-79
2021/10/13 10:41:44;;;;;;;13.20;9.93;;;;;;;;;;5000822;28;20427;-79
2021/10/13 10:44:29;;;;;;;14.65;11.18;;;;;;;;;;4983627;28;20026;-79
2021/10/13 10:47:02;;;;;;;13.80;10.18;;;;;;;;;;5000830;28;20082;-79
2021/10/13 10:49:46;;;;;;;16.65;12.65;;;;;;;;;;5000717;28;20413;-79
2021/10/13 10:52:13;;;;;;;15.45;9.38;;;;;;;;;;4983597;28;20447;-78
2021/10/13 10:54:39;;;;;;;20.08;14.25;;;;;;;;;;5000731;28;20023;-78
2021/10/13 10:57:23;;;;;;;15.38;11.73;;;;;;;;;;5000544;28;20028;-79
2021/10/13 10:59:50;;;;;;;18.00;13.68;;;;;;;;;;5012263;28;20076;-79
2021/10/13 11:02:21;;;;;;;12.65;10.50;;;;;;;;;;5019894;28;20025;-78
2021/10/13 11:05:06;;;;;;;10.68;8.27;;;;;;;;;;5020343;28;20025;-78
2021/10/13 11:07:33;;;;;;;9.52;6.43;;;;;;;;;;5002639;28;20026;-78
2021/10/13 11:10:07;;;;;;;13.10;7.80;;;;;;;;;;5019447;28;20298;-78
2021/10/13 11:12:51;;;;;;;16.08;9.98;;;;;;;;;;5002668;28;20018;-80
2021/10/13 11:15:19;;;;;;;17.92;10.50;;;;;;;;;;5019925;28;20427;-80
2021/10/13 11:17:45;;;;;;;9.90;6.97;;;;;;;;;;5020097;28;20038;-80
2021/10/13 11:20:13;;;;;;;13.27;9.25;;;;;;;;;;5019651;28;20501;-80
2021/10/13 11:22:40;;;;;;;16.88;12.68;;;;;;;;;;5019747;28;20105;-79
2021/10/13 11:25:13;;;;;;;14.35;10.57;;;;;;;;;;5019985;28;20022;-80
2021/10/13 11:27:39;;;;;;;12.20;8.75;;;;;;;;;;5001918;28;20034;-79
2021/10/13 11:30:18;;;;;;;22.80;13.15;;;;;;;;;;5019327;28;20641;-80
2021/10/13 11:32:44;;;;;;;13.57;10.40;;;;;;;;;;5019759;28;20029;-80
2021/10/13 11:35:11;;;;;;;13.95;9.32;;;;;;;;;;5019574;28;20022;-80
2021/10/13 11:37:37;;;;;;;13.50;9.60;;;;;;;;;;5019247;28;20105;-80
2021/10/13 11:40:03;;;;;;;8.60;6.20;;;;;;;;;;5019042;28;20040;-80
2021/10/13 11:42:31;;;;;;;8.77;6.03;;;;;;;;;;5019406;28;20408;-80
2021/10/13 11:44:57;;;;;;;9.32;5.72;;;;;;;;;;5019508;28;20109;-80
2021/10/13 11:47:30;;;;;;;8.23;5.88;;;;;;;;;;5019503;28;20030;-80
2021/10/13 11:50:01;;;;;;;6.22;5.50;;;;;;;;;;5019212;28;20022;-80
2021/10/13 11:52:27;;;;;;;5.90;5.03;;;;;;;;;;5019493;28;20022;-80
2021/10/13 11:54:57;;;;;;;6.95;5.45;;;;;;;;;;5019472;28;20022;-80
2021/10/13 11:57:24;;;;;;;6.88;5.07;;;;;;;;;;5019107;28;20022;-79
2021/10/13 12:00:08;;;;;;;9.68;5.15;;;;;;;;;;5000970;28;20072;-79
2021/10/13 12:02:34;;;;;;;8.40;6.18;;;;;;;;;;5019304;28;20041;-79
2021/10/13 12:05:03;;;;;;;26.95;15.10;;;;;;;;;;5019024;28;20032;-80
2021/10/13 12:07:29;;;;;;;7.90;5.45;;;;;;;;;;5001610;28;20030;-80
2021/10/13 12:10:02;;;;;;;6.88;4.35;;;;;;;;;;5018971;28;20030;-80
2021/10/13 12:12:29;;;;;;;8.30;4.75;;;;;;;;;;5018891;28;20029;-85
2021/10/13 12:14:55;;;;;;;7.40;5.03;;;;;;;;;;5001161;28;20054;-77
2021/10/13 12:17:22;;;;;;;5.97;5.38;;;;;;;;;;5018825;28;20065;-79
2021/10/13 12:19:48;;;;;;;7.55;3.70;;;;;;;;;;5018998;28;20285;-79
2021/10/13 12:22:14;;;;;;;4.28;3.20;;;;;;;;;;5018973;28;20025;-79
2021/10/13 12:24:40;;;;;;;4.78;3.03;;;;;;;;;;5018742;28;20022;-78
2021/10/13 12:27:09;;;;;;;28.83;5.05;;;;;;;;;;5000784;28;20080;-79
2021/10/13 12:29:39;;;;;;;3.17;2.70;;;;;;;;;;5001089;28;20022;-78
2021/10/13 12:32:19;;;;;;;5.97;2.95;;;;;;;;;;5001078;28;20336;-78
2021/10/13 12:34:45;;;;;;;7.18;3.63;;;;;;;;;;5018659;28;20018;-78
2021/10/13 12:37:11;;;;;;;7.43;3.05;;;;;;;;;;5018670;28;20022;-78
2021/10/13 12:39:37;;;;;;;3.05;2.53;;;;;;;;;;5018290;28;20041;-78
2021/10/13 12:42:08;;;;;;;6.45;3.40;;;;;;;;;;5018282;28;20121;-77
2021/10/13 12:44:34;;;;;;;6.30;3.75;;;;;;;;;;5018196;28;20347;-78
2021/10/13 12:47:06;;;;;;;6.43;4.05;;;;;;;;;;5018435;28;20309;-78
2021/10/13 12:49:39;;;;;;;6.60;4.50;;;;;;;;;;5017593;28;20022;-78
2021/10/13 12:52:07;;;;;;;4.72;2.83;;;;;;;;;;5017669;28;20034;-78
2021/10/13 12:54:37;;;;;;;5.45;2.33;;;;;;;;;;5018185;28;20100;-78
2021/10/13 12:57:05;;;;;;;5.07;2.88;;;;;;;;;;5018112;28;20424;-78
2021/10/13 12:59:31;;;;;;;5.07;2.60;;;;;;;;;;5026988;28;20140;-79
2021/10/13 13:01:57;;;;;;;3.58;2.30;;;;;;;;;;5019497;28;20034;-80
2021/10/13 13:04:23;;;;;;;3.75;3.00;;;;;;;;;;5038553;28;20083;-92
2021/10/13 13:06:49;;;;;;;5.03;3.50;;;;;;;;;;5038131;28;20033;-85
2021/10/13 13:09:16;;;;;;;9.52;4.95;;;;;;;;;;5037963;28;20053;-85
2021/10/13 13:11:42;;;;;;;6.30;3.88;;;;;;;;;;5020663;28;20026;-85
2021/10/13 13:14:08;;;;;;;6.55;3.50;;;;;;;;;;5037964;28;20024;-85
2021/10/13 13:16:34;;;;;;;7.25;3.35;;;;;;;;;;5037677;28;20036;-85
2021/10/13 13:19:01;;;;;;;8.95;2.97;;;;;;;;;;5020425;28;20022;-85
2021/10/13 13:21:27;;;;;;;3.78;2.80;;;;;;;;;;5037673;28;20029;-83
2021/10/13 13:23:53;;;;;;;4.10;2.80;;;;;;;;;;5037594;28;20025;-83
2021/10/13 13:26:19;;;;;;;5.65;3.53;;;;;;;;;;5037636;28;20087;-83
2021/10/13 13:29:16;;;;;;;4.85;3.13;;;;;;;;;;5037578;28;20517;-83
2021/10/13 13:31:43;;;;;;;7.35;3.75;;;;;;;;;;5037822;28;20323;-83
2021/10/13 13:34:09;;;;;;;4.82;2.80;;;;;;;;;;5037774;28;20018;-83
2021/10/13 13:36:35;;;;;;;4.70;3.65;;;;;;;;;;5037557;28;20117;-83
2021/10/13 13:39:01;;;;;;;5.15;3.17;;;;;;;;;;5037618;28;20045;-83
2021/10/13 13:41:27;;;;;;;4.50;2.83;;;;;;;;;;5037055;28;20049;-83
2021/10/13 13:43:53;;;;;;;4.35;2.70;;;;;;;;;;5037500;28;20018;-82
2021/10/13 13:46:20;;;;;;;5.82;3.05;;;;;;;;;;5037313;28;20403;-83
2021/10/13 13:48:47;;;;;;;6.47;3.67;;;;;;;;;;5037347;28;20434;-83
2021/10/13 13:51:13;;;;;;;7.32;3.25;;;;;;;;;;5019473;28;20037;-83
2021/10/13 13:53:39;;;;;;;3.95;2.92;;;;;;;;;;5037321;28;20328;-83
2021/10/13 13:56:06;;;;;;;5.22;2.50;;;;;;;;;;5019866;28;20044;-83
2021/10/13 13:58:32;;;;;;;4.32;2.30;;;;;;;;;;5019539;28;20426;-83
2021/10/13 14:00:58;;;;;;;4.25;2.10;;;;;;;;;;5019569;28;20038;-82
2021/10/13 14:03:24;;;;;;;7.50;2.80;;;;;;;;;;5019910;28;20044;-83
2021/10/13 14:05:50;;;;;;;4.85;2.90;;;;;;;;;;5037106;28;20029;-83
2021/10/13 14:08:17;;;;;;;5.07;1.88;;;;;;;;;;5019676;28;20033;-83
2021/10/13 14:10:43;;;;;;;4.97;1.98;;;;;;;;;;5037299;28;20112;-83
2021/10/13 14:13:09;;;;;;;3.53;2.55;;;;;;;;;;5037242;28;20412;-82
2021/10/13 14:15:35;;;;;;;4.68;1.92;;;;;;;;;;5037373;28;20013;-82
2021/10/13 14:18:02;;;;;;;7.15;2.10;;;;;;;;;;5037269;28;20017;-83
2021/10/13 14:20:28;;;;;;;6.18;2.67;;;;;;;;;;5037399;28;20029;-83
2021/10/13 14:22:54;;;;;;;8.10;2.90;;;;;;;;;;5019894;28;20029;-83
2021/10/13 14:25:20;;;;;;;6.47;2.45;;;;;;;;;;5019493;28;20159;-82
2021/10/13 14:27:47;;;;;;;7.13;2.30;;;;;;;;;;5037160;28;20108;-83
2021/10/13 14:30:32;;;;;;;4.20;1.80;;;;;;;;;;5037208;28;20033;-83